sensor_id;sensor_type;location;lat;lon;timestamp;temperature;humidity
12303;DHT22;6214;48.012;7.862;2023-05-20T00:00:55;14.70;99.90
12303;DHT22;6214;48.012;7.862;2023-05-20T00:03:22;14.70;99.90
12303;DHT22;6214;48.012;7.862;2023-05-20T00:05:49;14.70;99.90
12303;DHT22;6214;48.012;7.862;2023-05-20T00:08:18;14.90;99.90
12303;DHT22;6214;48.012;7.862;2023-05-20T00:10:45;14.90;99.90
12303;DHT22;6214;48.012;7.862;2023-05-20T00:13:12;14.90;99.90
12303;DHT22;6214;48.012;7.862;2023-05-20T00:15:39;15.00;99.90
12303;DHT22;6214;48.012;7.862;2023-05-20T00:18:07;15.10;99.90
12303;DHT22;6214;48.012;7.862;2023-05-20T00:20:34;15.10;99.90
12303;DHT22;6214;48.012;7.862;2023-05-20T00:23:01;15.10;99.90
12303;DHT22;6214;48.012;7.862;2023-05-20T00:25:28;15.10;99.90
12303;DHT22;6214;48.012;7.862;2023-05-20T00:27:57;15.00;99.90
12303;DHT22;6214;48.012;7.862;2023-05-20T00:30:24;15.10;99.90
12303;DHT22;6214;48.012;7.862;2023-05-20T00:32:52;15.10;99.90
12303;DHT22;6214;48.012;7.862;2023-05-20T00:35:19;15.10;99.90
12303;DHT22;6214;48.012;7.862;2023-05-20T00:37:46;15.20;99.90
12303;DHT22;6214;48.012;7.862;2023-05-20T00:40:13;15.10;99.90
12303;DHT22;6214;48.012;7.862;2023-05-20T00:42:41;15.20;99.90
12303;DHT22;6214;48.012;7.862;2023-05-20T00:45:09;15.20;99.90
12303;DHT22;6214;48.012;7.862;2023-05-20T00:47:37;14.90;99.90
12303;DHT22;6214;48.012;7.862;2023-05-20T00:50:05;14.90;99.90
12303;DHT22;6214;48.012;7.862;2023-05-20T00:52:33;14.90;99.90
12303;DHT22;6214;48.012;7.862;2023-05-20T00:55:01;14.90;99.90
12303;DHT22;6214;48.012;7.862;2023-05-20T00:57:28;14.80;99.90
12303;DHT22;6214;48.012;7.862;2023-05-20T00:59:56;14.90;99.90
12303;DHT22;6214;48.012;7.862;2023-05-20T01:02:23;14.90;99.90
12303;DHT22;6214;48.012;7.862;2023-05-20T01:04:51;14.90;99.90
12303;DHT22;6214;48.012;7.862;2023-05-20T01:07:19;14.80;99.90
12303;DHT22;6214;48.012;7.862;2023-05-20T01:09:46;14.80;99.90
12303;DHT22;6214;48.012;7.862;2023-05-20T01:12:27;14.70;99.90
12303;DHT22;6214;48.012;7.862;2023-05-20T01:15:00;14.70;99.90
12303;DHT22;6214;48.012;7.862;2023-05-20T01:17:30;14.70;99.90
12303;DHT22;6214;48.012;7.862;2023-05-20T01:19:59;14.80;99.90
12303;DHT22;6214;48.012;7.862;2023-05-20T01:22:28;15.00;99.90
12303;DHT22;6214;48.012;7.862;2023-05-20T01:24:55;14.90;99.90
12303;DHT22;6214;48.012;7.862;2023-05-20T01:27:23;14.90;99.90
12303;DHT22;6214;48.012;7.862;2023-05-20T01:29:50;14.90;99.90
12303;DHT22;6214;48.012;7.862;2023-05-20T01:32:21;15.10;99.90
12303;DHT22;6214;48.012;7.862;2023-05-20T01:34:51;15.20;99.90
12303;DHT22;6214;48.012;7.862;2023-05-20T01:37:18;15.20;99.90
12303;DHT22;6214;48.012;7.862;2023-05-20T01:39:48;15.10;99.90
12303;DHT22;6214;48.012;7.862;2023-05-20T01:42:16;15.20;99.90
12303;DHT22;6214;48.012;7.862;2023-05-20T01:44:44;15.20;99.90
12303;DHT22;6214;48.012;7.862;2023-05-20T01:47:12;15.20;99.90
12303;DHT22;6214;48.012;7.862;2023-05-20T01:49:39;15.10;99.90
12303;DHT22;6214;48.012;7.862;2023-05-20T01:52:07;15.20;99.90
12303;DHT22;6214;48.012;7.862;2023-05-20T01:54:34;15.30;99.90
12303;DHT22;6214;48.012;7.862;2023-05-20T01:57:01;15.30;99.90
12303;DHT22;6214;48.012;7.862;2023-05-20T01:59:28;15.20;99.90
12303;DHT22;6214;48.012;7.862;2023-05-20T02:01:55;15.00;99.90
12303;DHT22;6214;48.012;7.862;2023-05-20T02:04:22;14.80;99.90
12303;DHT22;6214;48.012;7.862;2023-05-20T02:06:49;14.80;99.90
12303;DHT22;6214;48.012;7.862;2023-05-20T02:09:17;14.80;99.90
12303;DHT22;6214;48.012;7.862;2023-05-20T02:11:44;14.70;99.90
12303;DHT22;6214;48.012;7.862;2023-05-20T02:14:11;14.80;99.90
12303;DHT22;6214;48.012;7.862;2023-05-20T02:16:38;14.70;99.90
12303;DHT22;6214;48.012;7.862;2023-05-20T02:19:05;14.50;99.90
12303;DHT22;6214;48.012;7.862;2023-05-20T02:21:40;14.80;99.90
12303;DHT22;6214;48.012;7.862;2023-05-20T02:24:07;14.80;99.90
12303;DHT22;6214;48.012;7.862;2023-05-20T02:26:34;14.70;99.90
12303;DHT22;6214;48.012;7.862;2023-05-20T02:29:01;14.80;99.90
12303;DHT22;6214;48.012;7.862;2023-05-20T02:31:28;14.90;99.90
12303;DHT22;6214;48.012;7.862;2023-05-20T02:33:55;14.80;99.90
12303;DHT22;6214;48.012;7.862;2023-05-20T02:36:22;14.80;99.90
12303;DHT22;6214;48.012;7.862;2023-05-20T02:38:49;14.70;99.90
12303;DHT22;6214;48.012;7.862;2023-05-20T02:41:16;14.60;99.90
12303;DHT22;6214;48.012;7.862;2023-05-20T02:43:43;14.70;99.90
12303;DHT22;6214;48.012;7.862;2023-05-20T02:46:11;14.70;99.90
12303;DHT22;6214;48.012;7.862;2023-05-20T02:48:38;14.80;99.90
12303;DHT22;6214;48.012;7.862;2023-05-20T02:51:05;14.80;99.90
12303;DHT22;6214;48.012;7.862;2023-05-20T02:53:32;14.80;99.90
12303;DHT22;6214;48.012;7.862;2023-05-20T02:55:59;14.80;99.90
12303;DHT22;6214;48.012;7.862;2023-05-20T02:58:27;14.70;99.90
12303;DHT22;6214;48.012;7.862;2023-05-20T03:00:55;14.80;99.90
12303;DHT22;6214;48.012;7.862;2023-05-20T03:03:25;14.80;99.90
12303;DHT22;6214;48.012;7.862;2023-05-20T03:05:55;14.80;99.90
12303;DHT22;6214;48.012;7.862;2023-05-20T03:08:22;14.90;99.90
12303;DHT22;6214;48.012;7.862;2023-05-20T03:10:49;14.80;99.90
12303;DHT22;6214;48.012;7.862;2023-05-20T03:13:16;14.90;99.90
12303;DHT22;6214;48.012;7.862;2023-05-20T03:15:44;14.80;99.90
12303;DHT22;6214;48.012;7.862;2023-05-20T03:18:12;14.70;99.90
12303;DHT22;6214;48.012;7.862;2023-05-20T03:20:39;14.70;99.90
12303;DHT22;6214;48.012;7.862;2023-05-20T03:23:08;14.50;99.90
12303;DHT22;6214;48.012;7.862;2023-05-20T03:25:36;14.40;99.90
12303;DHT22;6214;48.012;7.862;2023-05-20T03:28:03;14.10;99.90
12303;DHT22;6214;48.012;7.862;2023-05-20T03:30:30;14.00;99.90
12303;DHT22;6214;48.012;7.862;2023-05-20T03:32:58;14.00;99.90
12303;DHT22;6214;48.012;7.862;2023-05-20T03:35:25;13.90;99.90
12303;DHT22;6214;48.012;7.862;2023-05-20T03:37:52;13.90;99.90
12303;DHT22;6214;48.012;7.862;2023-05-20T03:40:19;13.80;99.90
12303;DHT22;6214;48.012;7.862;2023-05-20T03:42:47;13.70;99.90
12303;DHT22;6214;48.012;7.862;2023-05-20T03:45:15;13.70;99.90
12303;DHT22;6214;48.012;7.862;2023-05-20T03:47:42;13.60;99.90
12303;DHT22;6214;48.012;7.862;2023-05-20T03:50:09;13.60;99.90
12303;DHT22;6214;48.012;7.862;2023-05-20T03:52:37;13.50;99.90
12303;DHT22;6214;48.012;7.862;2023-05-20T03:55:04;13.50;99.90
12303;DHT22;6214;48.012;7.862;2023-05-20T03:57:32;13.50;99.90
12303;DHT22;6214;48.012;7.862;2023-05-20T03:59:59;13.40;99.90
12303;DHT22;6214;48.012;7.862;2023-05-20T04:02:28;13.40;99.90
12303;DHT22;6214;48.012;7.862;2023-05-20T04:04:56;13.50;99.90
12303;DHT22;6214;48.012;7.862;2023-05-20T04:07:23;13.50;99.90
12303;DHT22;6214;48.012;7.862;2023-05-20T04:09:50;13.50;99.90
12303;DHT22;6214;48.012;7.862;2023-05-20T04:12:17;13.40;99.90
12303;DHT22;6214;48.012;7.862;2023-05-20T04:14:45;13.40;99.90
12303;DHT22;6214;48.012;7.862;2023-05-20T04:17:12;13.40;99.90
12303;DHT22;6214;48.012;7.862;2023-05-20T04:19:39;13.50;99.90
12303;DHT22;6214;48.012;7.862;2023-05-20T04:22:06;13.70;99.90
12303;DHT22;6214;48.012;7.862;2023-05-20T04:24:33;13.60;99.90
12303;DHT22;6214;48.012;7.862;2023-05-20T04:27:00;13.50;99.90
12303;DHT22;6214;48.012;7.862;2023-05-20T04:29:27;13.40;99.90
12303;DHT22;6214;48.012;7.862;2023-05-20T04:31:55;13.40;99.90
12303;DHT22;6214;48.012;7.862;2023-05-20T04:34:24;13.30;99.90
12303;DHT22;6214;48.012;7.862;2023-05-20T04:36:52;13.30;99.90
12303;DHT22;6214;48.012;7.862;2023-05-20T04:39:19;13.30;99.90
12303;DHT22;6214;48.012;7.862;2023-05-20T04:41:46;13.40;99.90
12303;DHT22;6214;48.012;7.862;2023-05-20T04:44:14;13.50;99.90
12303;DHT22;6214;48.012;7.862;2023-05-20T04:46:41;13.40;99.90
12303;DHT22;6214;48.012;7.862;2023-05-20T04:49:10;13.50;99.90
12303;DHT22;6214;48.012;7.862;2023-05-20T04:51:37;13.50;99.90
12303;DHT22;6214;48.012;7.862;2023-05-20T04:54:04;13.50;99.90
12303;DHT22;6214;48.012;7.862;2023-05-20T04:56:31;13.40;99.90
12303;DHT22;6214;48.012;7.862;2023-05-20T04:58:59;13.40;99.90
12303;DHT22;6214;48.012;7.862;2023-05-20T05:01:26;13.70;99.90
12303;DHT22;6214;48.012;7.862;2023-05-20T05:03:53;14.00;99.90
12303;DHT22;6214;48.012;7.862;2023-05-20T05:06:20;14.10;99.90
12303;DHT22;6214;48.012;7.862;2023-05-20T05:08:47;14.10;99.90
12303;DHT22;6214;48.012;7.862;2023-05-20T05:11:14;14.00;99.90
12303;DHT22;6214;48.012;7.862;2023-05-20T05:13:41;14.10;99.90
12303;DHT22;6214;48.012;7.862;2023-05-20T05:16:08;14.20;99.90
12303;DHT22;6214;48.012;7.862;2023-05-20T05:18:35;14.30;99.90
12303;DHT22;6214;48.012;7.862;2023-05-20T05:21:04;14.30;99.90
12303;DHT22;6214;48.012;7.862;2023-05-20T05:23:32;14.50;99.90
12303;DHT22;6214;48.012;7.862;2023-05-20T05:25:59;14.70;99.90
12303;DHT22;6214;48.012;7.862;2023-05-20T05:28:26;14.60;99.90
12303;DHT22;6214;48.012;7.862;2023-05-20T05:30:54;14.80;99.90
12303;DHT22;6214;48.012;7.862;2023-05-20T05:33:22;14.80;99.90
12303;DHT22;6214;48.012;7.862;2023-05-20T05:35:49;14.80;99.90
12303;DHT22;6214;48.012;7.862;2023-05-20T05:38:17;14.70;99.90
12303;DHT22;6214;48.012;7.862;2023-05-20T05:40:44;14.70;99.90
12303;DHT22;6214;48.012;7.862;2023-05-20T05:43:11;14.90;99.90
12303;DHT22;6214;48.012;7.862;2023-05-20T05:45:38;14.90;99.90
12303;DHT22;6214;48.012;7.862;2023-05-20T05:48:05;15.00;99.90
12303;DHT22;6214;48.012;7.862;2023-05-20T05:50:32;15.30;99.90
12303;DHT22;6214;48.012;7.862;2023-05-20T05:52:59;15.40;99.90
12303;DHT22;6214;48.012;7.862;2023-05-20T05:55:26;15.50;99.90
12303;DHT22;6214;48.012;7.862;2023-05-20T05:57:53;15.70;99.90
12303;DHT22;6214;48.012;7.862;2023-05-20T06:00:20;15.80;99.90
12303;DHT22;6214;48.012;7.862;2023-05-20T06:02:47;15.90;99.90
12303;DHT22;6214;48.012;7.862;2023-05-20T06:05:15;15.80;99.90
12303;DHT22;6214;48.012;7.862;2023-05-20T06:07:42;15.80;99.90
12303;DHT22;6214;48.012;7.862;2023-05-20T06:10:09;16.00;99.90
12303;DHT22;6214;48.012;7.862;2023-05-20T06:12:36;16.40;99.90
12303;DHT22;6214;48.012;7.862;2023-05-20T06:15:04;16.50;99.90
12303;DHT22;6214;48.012;7.862;2023-05-20T06:17:32;16.60;99.90
12303;DHT22;6214;48.012;7.862;2023-05-20T06:19:59;16.60;99.90
12303;DHT22;6214;48.012;7.862;2023-05-20T06:22:26;16.80;99.90
12303;DHT22;6214;48.012;7.862;2023-05-20T06:24:54;16.90;99.90
12303;DHT22;6214;48.012;7.862;2023-05-20T06:27:22;17.10;99.90
12303;DHT22;6214;48.012;7.862;2023-05-20T06:29:49;17.30;99.90
12303;DHT22;6214;48.012;7.862;2023-05-20T06:32:16;17.40;99.90
12303;DHT22;6214;48.012;7.862;2023-05-20T06:34:43;17.30;99.90
12303;DHT22;6214;48.012;7.862;2023-05-20T06:37:11;17.10;99.90
12303;DHT22;6214;48.012;7.862;2023-05-20T06:39:38;17.00;99.90
12303;DHT22;6214;48.012;7.862;2023-05-20T06:42:05;17.00;99.90
12303;DHT22;6214;48.012;7.862;2023-05-20T06:44:32;16.90;99.90
12303;DHT22;6214;48.012;7.862;2023-05-20T06:46:59;16.90;99.90
12303;DHT22;6214;48.012;7.862;2023-05-20T06:49:26;17.30;99.90
12303;DHT22;6214;48.012;7.862;2023-05-20T06:51:54;17.60;99.90
12303;DHT22;6214;48.012;7.862;2023-05-20T06:54:21;17.80;99.90
12303;DHT22;6214;48.012;7.862;2023-05-20T06:56:48;17.80;99.90
12303;DHT22;6214;48.012;7.862;2023-05-20T06:59:15;18.00;99.90
12303;DHT22;6214;48.012;7.862;2023-05-20T07:01:42;18.30;99.90
12303;DHT22;6214;48.012;7.862;2023-05-20T07:04:09;18.10;99.90
12303;DHT22;6214;48.012;7.862;2023-05-20T07:06:36;18.00;99.90
12303;DHT22;6214;48.012;7.862;2023-05-20T07:09:03;18.00;99.90
12303;DHT22;6214;48.012;7.862;2023-05-20T07:11:31;18.10;99.90
12303;DHT22;6214;48.012;7.862;2023-05-20T07:13:58;18.20;99.90
12303;DHT22;6214;48.012;7.862;2023-05-20T07:16:25;18.30;99.90
12303;DHT22;6214;48.012;7.862;2023-05-20T07:18:52;18.40;99.90
12303;DHT22;6214;48.012;7.862;2023-05-20T07:21:19;18.40;99.90
12303;DHT22;6214;48.012;7.862;2023-05-20T07:23:46;18.40;99.90
12303;DHT22;6214;48.012;7.862;2023-05-20T07:26:13;18.10;99.90
12303;DHT22;6214;48.012;7.862;2023-05-20T07:28:40;17.80;99.90
12303;DHT22;6214;48.012;7.862;2023-05-20T07:31:07;17.80;99.90
12303;DHT22;6214;48.012;7.862;2023-05-20T07:33:34;17.60;99.90
12303;DHT22;6214;48.012;7.862;2023-05-20T07:36:02;17.80;99.90
12303;DHT22;6214;48.012;7.862;2023-05-20T07:38:29;18.00;99.90
12303;DHT22;6214;48.012;7.862;2023-05-20T07:40:56;18.00;99.90
12303;DHT22;6214;48.012;7.862;2023-05-20T07:43:23;17.70;99.90
12303;DHT22;6214;48.012;7.862;2023-05-20T07:45:50;17.80;99.90
12303;DHT22;6214;48.012;7.862;2023-05-20T07:48:17;17.80;99.90
12303;DHT22;6214;48.012;7.862;2023-05-20T07:50:45;17.80;99.90
12303;DHT22;6214;48.012;7.862;2023-05-20T07:53:12;18.00;99.90
12303;DHT22;6214;48.012;7.862;2023-05-20T07:55:39;17.80;99.90
12303;DHT22;6214;48.012;7.862;2023-05-20T07:58:06;17.90;99.90
12303;DHT22;6214;48.012;7.862;2023-05-20T08:00:33;18.00;99.90
12303;DHT22;6214;48.012;7.862;2023-05-20T08:03:00;18.00;99.90
12303;DHT22;6214;48.012;7.862;2023-05-20T08:05:28;17.90;99.90
12303;DHT22;6214;48.012;7.862;2023-05-20T08:07:55;18.00;99.90
12303;DHT22;6214;48.012;7.862;2023-05-20T08:10:22;18.00;99.90
12303;DHT22;6214;48.012;7.862;2023-05-20T08:12:49;18.10;99.90
12303;DHT22;6214;48.012;7.862;2023-05-20T08:15:16;18.20;99.90
12303;DHT22;6214;48.012;7.862;2023-05-20T08:17:43;18.10;99.90
12303;DHT22;6214;48.012;7.862;2023-05-20T08:20:11;18.20;99.90
12303;DHT22;6214;48.012;7.862;2023-05-20T08:22:38;18.30;99.90
12303;DHT22;6214;48.012;7.862;2023-05-20T08:25:09;18.40;99.90
12303;DHT22;6214;48.012;7.862;2023-05-20T08:27:36;18.40;99.90
12303;DHT22;6214;48.012;7.862;2023-05-20T08:30:04;18.50;99.90
12303;DHT22;6214;48.012;7.862;2023-05-20T08:32:32;18.60;99.90
12303;DHT22;6214;48.012;7.862;2023-05-20T08:35:00;18.60;99.90
12303;DHT22;6214;48.012;7.862;2023-05-20T08:37:28;18.70;99.90
12303;DHT22;6214;48.012;7.862;2023-05-20T08:39:55;18.60;99.90
12303;DHT22;6214;48.012;7.862;2023-05-20T08:42:23;18.50;99.90
12303;DHT22;6214;48.012;7.862;2023-05-20T08:44:53;18.60;99.90
12303;DHT22;6214;48.012;7.862;2023-05-20T08:47:22;18.70;99.90
12303;DHT22;6214;48.012;7.862;2023-05-20T08:49:49;18.60;99.90
12303;DHT22;6214;48.012;7.862;2023-05-20T08:52:20;18.60;99.90
12303;DHT22;6214;48.012;7.862;2023-05-20T08:54:49;18.70;99.90
12303;DHT22;6214;48.012;7.862;2023-05-20T08:57:16;18.90;99.90
12303;DHT22;6214;48.012;7.862;2023-05-20T08:59:44;18.70;99.90
12303;DHT22;6214;48.012;7.862;2023-05-20T09:02:13;18.90;99.90
12303;DHT22;6214;48.012;7.862;2023-05-20T09:04:40;18.90;99.90
12303;DHT22;6214;48.012;7.862;2023-05-20T09:07:07;18.90;99.90
12303;DHT22;6214;48.012;7.862;2023-05-20T09:09:35;18.90;99.90
12303;DHT22;6214;48.012;7.862;2023-05-20T09:12:02;18.90;99.90
12303;DHT22;6214;48.012;7.862;2023-05-20T09:14:30;18.90;99.90
12303;DHT22;6214;48.012;7.862;2023-05-20T09:16:58;19.00;99.90
12303;DHT22;6214;48.012;7.862;2023-05-20T09:19:25;19.00;99.90
12303;DHT22;6214;48.012;7.862;2023-05-20T09:21:53;18.90;99.90
12303;DHT22;6214;48.012;7.862;2023-05-20T09:24:25;18.70;99.90
12303;DHT22;6214;48.012;7.862;2023-05-20T09:26:52;18.70;99.90
12303;DHT22;6214;48.012;7.862;2023-05-20T09:29:19;19.00;99.90
12303;DHT22;6214;48.012;7.862;2023-05-20T09:31:48;19.10;99.90
12303;DHT22;6214;48.012;7.862;2023-05-20T09:34:22;19.30;99.90
12303;DHT22;6214;48.012;7.862;2023-05-20T09:36:49;19.40;99.90
12303;DHT22;6214;48.012;7.862;2023-05-20T09:39:22;19.30;99.90
12303;DHT22;6214;48.012;7.862;2023-05-20T09:41:56;19.20;99.90
12303;DHT22;6214;48.012;7.862;2023-05-20T09:44:30;19.40;99.90
12303;DHT22;6214;48.012;7.862;2023-05-20T09:46:58;19.70;99.90
12303;DHT22;6214;48.012;7.862;2023-05-20T09:49:28;20.00;99.90
12303;DHT22;6214;48.012;7.862;2023-05-20T09:51:57;20.00;99.90
12303;DHT22;6214;48.012;7.862;2023-05-20T09:54:25;20.00;99.90
12303;DHT22;6214;48.012;7.862;2023-05-20T09:56:56;20.10;99.90
12303;DHT22;6214;48.012;7.862;2023-05-20T09:59:24;20.20;99.90
12303;DHT22;6214;48.012;7.862;2023-05-20T10:01:51;20.10;99.90
12303;DHT22;6214;48.012;7.862;2023-05-20T10:04:19;20.20;99.90
12303;DHT22;6214;48.012;7.862;2023-05-20T10:07:25;20.40;99.90
12303;DHT22;6214;48.012;7.862;2023-05-20T10:18:54;20.80;99.90
12303;DHT22;6214;48.012;7.862;2023-05-20T10:21:23;20.50;99.90
12303;DHT22;6214;48.012;7.862;2023-05-20T10:23:51;20.60;99.90
12303;DHT22;6214;48.012;7.862;2023-05-20T10:26:18;20.60;99.90
12303;DHT22;6214;48.012;7.862;2023-05-20T10:28:48;20.70;99.90
12303;DHT22;6214;48.012;7.862;2023-05-20T10:31:21;20.60;99.90
12303;DHT22;6214;48.012;7.862;2023-05-20T10:33:51;20.80;99.90
12303;DHT22;6214;48.012;7.862;2023-05-20T10:36:26;20.80;99.90
12303;DHT22;6214;48.012;7.862;2023-05-20T10:38:58;20.80;99.90
12303;DHT22;6214;48.012;7.862;2023-05-20T10:41:26;20.80;99.90
12303;DHT22;6214;48.012;7.862;2023-05-20T10:44:04;20.80;99.90
12303;DHT22;6214;48.012;7.862;2023-05-20T10:46:33;20.50;99.90
12303;DHT22;6214;48.012;7.862;2023-05-20T10:49:20;20.70;99.90
12303;DHT22;6214;48.012;7.862;2023-05-20T10:51:52;21.10;99.90
12303;DHT22;6214;48.012;7.862;2023-05-20T10:54:21;21.40;99.90
12303;DHT22;6214;48.012;7.862;2023-05-20T10:56:52;21.70;99.90
12303;DHT22;6214;48.012;7.862;2023-05-20T10:59:20;22.10;99.90
12303;DHT22;6214;48.012;7.862;2023-05-20T11:01:48;22.10;99.90
12303;DHT22;6214;48.012;7.862;2023-05-20T11:04:15;21.90;99.90
12303;DHT22;6214;48.012;7.862;2023-05-20T11:06:52;21.80;99.90
12303;DHT22;6214;48.012;7.862;2023-05-20T11:09:20;21.80;99.90
12303;DHT22;6214;48.012;7.862;2023-05-20T11:11:52;21.60;99.90
12303;DHT22;6214;48.012;7.862;2023-05-20T11:14:20;21.60;99.90
12303;DHT22;6214;48.012;7.862;2023-05-20T11:16:51;21.50;99.90
12303;DHT22;6214;48.012;7.862;2023-05-20T11:19:19;21.40;99.90
12303;DHT22;6214;48.012;7.862;2023-05-20T11:21:47;21.30;99.90
12303;DHT22;6214;48.012;7.862;2023-05-20T11:24:23;21.30;99.90
12303;DHT22;6214;48.012;7.862;2023-05-20T11:26:52;21.30;99.90
12303;DHT22;6214;48.012;7.862;2023-05-20T11:29:19;21.50;99.90
12303;DHT22;6214;48.012;7.862;2023-05-20T11:31:51;21.50;99.90
12303;DHT22;6214;48.012;7.862;2023-05-20T11:34:21;21.80;99.90
12303;DHT22;6214;48.012;7.862;2023-05-20T11:36:58;22.20;99.90
12303;DHT22;6214;48.012;7.862;2023-05-20T11:39:29;22.40;99.90
12303;DHT22;6214;48.012;7.862;2023-05-20T11:41:57;22.40;99.90
12303;DHT22;6214;48.012;7.862;2023-05-20T11:44:24;22.40;99.90
12303;DHT22;6214;48.012;7.862;2023-05-20T11:46:59;22.40;99.90
12303;DHT22;6214;48.012;7.862;2023-05-20T11:49:26;22.40;99.90
12303;DHT22;6214;48.012;7.862;2023-05-20T11:51:53;22.40;99.90
12303;DHT22;6214;48.012;7.862;2023-05-20T11:54:21;22.20;99.90
12303;DHT22;6214;48.012;7.862;2023-05-20T11:56:49;22.50;99.90
12303;DHT22;6214;48.012;7.862;2023-05-20T11:59:17;23.00;99.90
12303;DHT22;6214;48.012;7.862;2023-05-20T12:01:46;23.50;99.90
12303;DHT22;6214;48.012;7.862;2023-05-20T12:04:13;23.60;99.90
12303;DHT22;6214;48.012;7.862;2023-05-20T12:06:41;23.40;99.90
12303;DHT22;6214;48.012;7.862;2023-05-20T12:09:10;23.30;99.90
12303;DHT22;6214;48.012;7.862;2023-05-20T12:11:38;23.10;99.90
12303;DHT22;6214;48.012;7.862;2023-05-20T12:14:10;23.00;99.90
12303;DHT22;6214;48.012;7.862;2023-05-20T12:16:37;23.00;99.90
12303;DHT22;6214;48.012;7.862;2023-05-20T12:19:04;23.00;99.90
12303;DHT22;6214;48.012;7.862;2023-05-20T12:21:32;22.80;99.90
12303;DHT22;6214;48.012;7.862;2023-05-20T12:23:59;22.40;99.90
12303;DHT22;6214;48.012;7.862;2023-05-20T12:26:27;22.40;99.90
12303;DHT22;6214;48.012;7.862;2023-05-20T12:28:55;22.20;99.90
12303;DHT22;6214;48.012;7.862;2023-05-20T12:31:23;22.00;99.90
12303;DHT22;6214;48.012;7.862;2023-05-20T12:33:50;21.90;99.90
12303;DHT22;6214;48.012;7.862;2023-05-20T12:36:17;22.30;99.90
12303;DHT22;6214;48.012;7.862;2023-05-20T12:38:45;22.50;99.90
12303;DHT22;6214;48.012;7.862;2023-05-20T12:41:12;22.60;99.90
12303;DHT22;6214;48.012;7.862;2023-05-20T12:43:40;22.60;99.90
12303;DHT22;6214;48.012;7.862;2023-05-20T12:46:07;22.80;99.90
12303;DHT22;6214;48.012;7.862;2023-05-20T12:48:34;22.80;99.90
12303;DHT22;6214;48.012;7.862;2023-05-20T12:51:02;22.80;99.90
12303;DHT22;6214;48.012;7.862;2023-05-20T12:53:29;22.50;99.90
12303;DHT22;6214;48.012;7.862;2023-05-20T12:55:56;22.50;99.90
12303;DHT22;6214;48.012;7.862;2023-05-20T12:58:23;22.80;99.90
12303;DHT22;6214;48.012;7.862;2023-05-20T13:00:50;22.70;99.90
12303;DHT22;6214;48.012;7.862;2023-05-20T13:03:17;22.80;99.90
12303;DHT22;6214;48.012;7.862;2023-05-20T13:05:45;22.80;99.90
12303;DHT22;6214;48.012;7.862;2023-05-20T13:08:12;22.80;99.90
12303;DHT22;6214;48.012;7.862;2023-05-20T13:10:40;22.90;99.90
12303;DHT22;6214;48.012;7.862;2023-05-20T13:13:07;23.00;99.90
12303;DHT22;6214;48.012;7.862;2023-05-20T13:15:35;23.10;99.90
12303;DHT22;6214;48.012;7.862;2023-05-20T13:18:02;23.20;99.90
12303;DHT22;6214;48.012;7.862;2023-05-20T13:20:32;23.50;99.90
12303;DHT22;6214;48.012;7.862;2023-05-20T13:22:59;23.70;99.90
12303;DHT22;6214;48.012;7.862;2023-05-20T13:25:27;23.80;99.90
12303;DHT22;6214;48.012;7.862;2023-05-20T13:27:55;24.00;99.90
12303;DHT22;6214;48.012;7.862;2023-05-20T13:30:22;24.00;99.90
12303;DHT22;6214;48.012;7.862;2023-05-20T13:32:49;24.00;99.90
12303;DHT22;6214;48.012;7.862;2023-05-20T13:35:16;24.00;99.90
12303;DHT22;6214;48.012;7.862;2023-05-20T13:37:44;24.10;99.90
12303;DHT22;6214;48.012;7.862;2023-05-20T13:40:11;23.90;99.90
12303;DHT22;6214;48.012;7.862;2023-05-20T13:42:38;23.70;99.90
12303;DHT22;6214;48.012;7.862;2023-05-20T13:45:06;23.60;99.90
12303;DHT22;6214;48.012;7.862;2023-05-20T13:47:33;23.80;99.90
12303;DHT22;6214;48.012;7.862;2023-05-20T13:50:01;23.80;99.90
12303;DHT22;6214;48.012;7.862;2023-05-20T13:52:29;23.90;99.90
12303;DHT22;6214;48.012;7.862;2023-05-20T13:54:56;24.20;99.90
12303;DHT22;6214;48.012;7.862;2023-05-20T13:57:23;24.20;99.90
12303;DHT22;6214;48.012;7.862;2023-05-20T13:59:50;24.30;99.90
12303;DHT22;6214;48.012;7.862;2023-05-20T14:02:17;24.30;99.90
12303;DHT22;6214;48.012;7.862;2023-05-20T14:04:44;24.30;99.90
12303;DHT22;6214;48.012;7.862;2023-05-20T14:07:12;24.40;99.90
12303;DHT22;6214;48.012;7.862;2023-05-20T14:09:40;24.20;99.90
12303;DHT22;6214;48.012;7.862;2023-05-20T14:12:07;24.20;99.90
12303;DHT22;6214;48.012;7.862;2023-05-20T14:14:34;24.30;99.90
12303;DHT22;6214;48.012;7.862;2023-05-20T14:17:02;24.20;99.90
12303;DHT22;6214;48.012;7.862;2023-05-20T14:19:29;24.30;99.90
12303;DHT22;6214;48.012;7.862;2023-05-20T14:21:56;23.90;99.90
12303;DHT22;6214;48.012;7.862;2023-05-20T14:24:26;23.90;99.90
12303;DHT22;6214;48.012;7.862;2023-05-20T14:26:54;23.70;99.90
12303;DHT22;6214;48.012;7.862;2023-05-20T14:29:21;23.90;99.90
12303;DHT22;6214;48.012;7.862;2023-05-20T14:31:48;24.00;99.90
12303;DHT22;6214;48.012;7.862;2023-05-20T14:34:15;24.00;99.90
12303;DHT22;6214;48.012;7.862;2023-05-20T14:36:42;24.00;99.90
12303;DHT22;6214;48.012;7.862;2023-05-20T14:39:09;24.00;99.90
12303;DHT22;6214;48.012;7.862;2023-05-20T14:41:37;23.90;99.90
12303;DHT22;6214;48.012;7.862;2023-05-20T14:44:04;24.00;99.90
12303;DHT22;6214;48.012;7.862;2023-05-20T14:46:31;23.90;99.90
12303;DHT22;6214;48.012;7.862;2023-05-20T14:48:59;24.00;99.90
12303;DHT22;6214;48.012;7.862;2023-05-20T14:51:28;24.00;99.90
12303;DHT22;6214;48.012;7.862;2023-05-20T14:53:55;23.90;99.90
12303;DHT22;6214;48.012;7.862;2023-05-20T14:56:22;23.70;99.90
12303;DHT22;6214;48.012;7.862;2023-05-20T14:58:49;23.80;99.90
12303;DHT22;6214;48.012;7.862;2023-05-20T15:01:16;23.50;99.90
12303;DHT22;6214;48.012;7.862;2023-05-20T15:03:43;23.40;99.90
12303;DHT22;6214;48.012;7.862;2023-05-20T15:06:10;23.40;99.90
12303;DHT22;6214;48.012;7.862;2023-05-20T15:08:37;23.30;99.90
12303;DHT22;6214;48.012;7.862;2023-05-20T15:11:04;23.30;99.90
12303;DHT22;6214;48.012;7.862;2023-05-20T15:13:31;23.30;99.90
12303;DHT22;6214;48.012;7.862;2023-05-20T15:15:59;23.30;99.90
12303;DHT22;6214;48.012;7.862;2023-05-20T15:18:26;23.20;99.90
12303;DHT22;6214;48.012;7.862;2023-05-20T15:20:53;23.30;99.90
12303;DHT22;6214;48.012;7.862;2023-05-20T15:23:20;23.10;99.90
12303;DHT22;6214;48.012;7.862;2023-05-20T15:25:47;23.20;99.90
12303;DHT22;6214;48.012;7.862;2023-05-20T15:28:16;23.30;99.90
12303;DHT22;6214;48.012;7.862;2023-05-20T15:30:49;23.30;99.90
12303;DHT22;6214;48.012;7.862;2023-05-20T15:33:17;23.40;99.90
12303;DHT22;6214;48.012;7.862;2023-05-20T15:35:44;23.50;99.90
12303;DHT22;6214;48.012;7.862;2023-05-20T15:38:12;23.40;99.90
12303;DHT22;6214;48.012;7.862;2023-05-20T15:40:39;23.50;99.90
12303;DHT22;6214;48.012;7.862;2023-05-20T15:43:07;23.60;99.90
12303;DHT22;6214;48.012;7.862;2023-05-20T15:45:34;23.60;99.90
12303;DHT22;6214;48.012;7.862;2023-05-20T15:48:01;23.70;99.90
12303;DHT22;6214;48.012;7.862;2023-05-20T15:50:28;23.70;99.90
12303;DHT22;6214;48.012;7.862;2023-05-20T15:52:55;23.80;99.90
12303;DHT22;6214;48.012;7.862;2023-05-20T15:55:22;23.80;99.90
12303;DHT22;6214;48.012;7.862;2023-05-20T15:57:50;23.80;99.90